Time;durP1;ratioP1;P1;durP2;ratioP2;P2;SDS_P1;SDS_P2;PMS_P1;PMS_P2;Temp;Humidity;BMP_temperature;BMP_pressure;BME280_temperature;BME280_humidity;BME280_pressure;Samples;Min_cycle;Max_cycle;Signal;HPM_P1;HPM_P2
2022/04/05 00:00:24;;;;;;;14.18;7.72;;;10.10;99.90;;;;;;5092498;28;20032;-77
2022/04/05 00:02:50;;;;;;;16.25;7.72;;;10.10;99.90;;;;;;5092330;28;20027;-77
2022/04/05 00:05:17;;;;;;;20.80;9.02;;;10.10;99.90;;;;;;5092189;28;20398;-77
2022/04/05 00:07:43;;;;;;;22.08;9.77;;;10.10;99.90;;;;;;5092882;28;20457;-78
2022/04/05 00:10:08;;;;;;;21.15;8.43;;;10.10;99.90;;;;;;5091286;28;20127;-77
2022/04/05 00:12:34;;;;;;;16.05;8.68;;;10.00;99.90;;;;;;5092543;28;20024;-78
2022/04/05 00:15:00;;;;;;;25.45;10.18;;;10.10;99.90;;;;;;5092554;28;20028;-78
2022/04/05 00:17:25;;;;;;;17.48;8.52;;;10.00;99.90;;;;;;5091410;28;20464;-77
2022/04/05 00:19:51;;;;;;;17.75;8.02;;;10.00;99.90;;;;;;5092656;28;20024;-76
2022/04/05 00:22:16;;;;;;;19.23;7.97;;;10.00;99.90;;;;;;5093148;28;20016;-78
2022/04/05 00:24:42;;;;;;;16.50;8.40;;;10.00;99.90;;;;;;5091949;28;20047;-78
2022/04/05 00:27:07;;;;;;;11.23;7.95;;;10.10;99.90;;;;;;5092295;28;20487;-79
2022/04/05 00:29:33;;;;;;;15.35;8.23;;;10.00;99.90;;;;;;5090940;28;20032;-78
2022/04/05 00:31:59;;;;;;;22.60;10.13;;;10.00;99.90;;;;;;5093128;28;20179;-78
2022/04/05 00:34:25;;;;;;;13.20;8.20;;;10.00;99.90;;;;;;5092773;28;20464;-77
2022/04/05 00:36:52;;;;;;;14.63;8.80;;;10.00;99.90;;;;;;5091637;28;20039;-76
2022/04/05 00:39:18;;;;;;;18.38;8.73;;;10.00;99.90;;;;;;5092141;28;20025;-77
2022/04/05 00:41:44;;;;;;;20.48;10.05;;;9.90;99.90;;;;;;5092386;28;20035;-77
2022/04/05 00:44:10;;;;;;;16.42;8.98;;;10.00;99.90;;;;;;5090986;28;20016;-76
2022/04/05 00:46:35;;;;;;;14.02;7.65;;;9.90;99.90;;;;;;5092118;28;20348;-77
2022/04/05 00:49:01;;;;;;;17.50;8.65;;;9.90;99.90;;;;;;5092226;28;20107;-77
2022/04/05 00:51:27;;;;;;;16.73;9.65;;;9.90;99.90;;;;;;5091243;28;20043;-78
2022/04/05 00:53:54;;;;;;;20.42;9.55;;;9.90;99.90;;;;;;5092263;28;20024;-78
2022/04/05 00:56:21;;;;;;;23.23;9.88;;;9.90;99.90;;;;;;5091830;28;20020;-78
2022/04/05 00:58:49;;;;;;;22.70;9.93;;;9.90;99.90;;;;;;5091293;28;20495;-77
2022/04/05 01:01:18;;;;;;;21.98;9.35;;;9.90;99.90;;;;;;5091906;28;20131;-78
2022/04/05 01:03:50;;;;;;;20.10;8.52;;;9.90;99.90;;;;;;5091988;28;20024;-79
2022/04/05 01:06:34;;;;;;;16.83;8.55;;;9.80;99.90;;;;;;5091323;28;20418;-79
2022/04/05 01:09:00;;;;;;;21.50;9.18;;;9.80;99.90;;;;;;5091801;28;20052;-77
2022/04/05 01:11:26;;;;;;;25.65;9.02;;;9.80;99.90;;;;;;5091565;28;20122;-77
2022/04/05 01:13:53;;;;;;;33.42;9.52;;;9.80;99.90;;;;;;5091263;28;20099;-77
2022/04/05 01:16:21;;;;;;;22.95;9.32;;;9.70;99.90;;;;;;5091874;28;20043;-78
2022/04/05 01:18:48;;;;;;;12.13;7.60;;;9.70;99.90;;;;;;5091322;28;20023;-78
2022/04/05 01:21:14;;;;;;;14.30;7.22;;;9.80;99.90;;;;;;5091606;28;20506;-78
2022/04/05 01:24:02;;;;;;;18.85;7.93;;;9.60;99.90;;;;;;5091706;28;20028;-78
2022/04/05 01:26:27;;;;;;;20.88;8.43;;;9.60;99.90;;;;;;5091037;28;20027;-78
2022/04/05 01:28:53;;;;;;;20.90;8.07;;;9.60;99.90;;;;;;5091761;28;20032;-77
2022/04/05 01:31:18;;;;;;;28.48;8.77;;;9.60;99.90;;;;;;5091418;28;20043;-78
2022/04/05 01:33:45;;;;;;;18.42;8.45;;;9.60;99.90;;;;;;5091163;28;20013;-78
2022/04/05 01:36:22;;;;;;;16.00;7.30;;;9.60;99.90;;;;;;5091434;28;20056;-78
2022/04/05 01:38:47;;;;;;;18.50;8.68;;;9.60;99.90;;;;;;5091892;28;20025;-78
2022/04/05 01:41:13;;;;;;;24.50;9.55;;;9.50;99.90;;;;;;5093233;28;20379;-77
2022/04/05 01:43:40;;;;;;;21.33;8.27;;;9.60;99.90;;;;;;5095433;28;20480;-78
2022/04/05 01:46:06;;;;;;;20.42;9.43;;;9.60;99.90;;;;;;5095310;28;20371;-77
2022/04/05 01:48:32;;;;;;;26.75;9.73;;;9.60;99.90;;;;;;5094568;28;20582;-77
2022/04/05 01:50:57;;;;;;;21.55;8.63;;;9.70;99.90;;;;;;5095208;28;20102;-77
2022/04/05 01:53:23;;;;;;;18.52;8.48;;;9.60;99.90;;;;;;5095232;28;20107;-77
2022/04/05 01:55:48;;;;;;;20.20;9.32;;;9.60;99.90;;;;;;5094301;28;20028;-77
2022/04/05 01:58:14;;;;;;;20.77;9.85;;;9.60;99.90;;;;;;5094882;28;20032;-77
2022/04/05 02:00:39;;;;;;;17.67;9.02;;;9.70;99.90;;;;;;5095211;28;20024;-76
2022/04/05 02:03:05;;;;;;;19.83;9.35;;;9.60;99.90;;;;;;5094101;28;20026;-77
2022/04/05 02:05:30;;;;;;;21.85;10.07;;;9.60;99.90;;;;;;5094598;28;20027;-76
2022/04/05 02:07:56;;;;;;;15.65;8.35;;;9.60;99.90;;;;;;5094245;28;20035;-77
2022/04/05 02:10:22;;;;;;;24.27;11.10;;;9.60;99.90;;;;;;5086678;28;20043;-77
2022/04/05 02:12:47;;;;;;;22.75;9.63;;;9.70;99.90;;;;;;5085982;28;20025;-77
2022/04/05 02:15:13;;;;;;;22.27;10.20;;;9.60;99.90;;;;;;5073587;28;20031;-77
2022/04/05 02:17:38;;;;;;;17.40;9.98;;;9.60;99.90;;;;;;5074392;28;20031;-77
2022/04/05 02:20:05;;;;;;;15.90;9.50;;;9.60;99.90;;;;;;5074138;28;20028;-77
2022/04/05 02:22:31;;;;;;;21.10;10.65;;;9.50;99.90;;;;;;5073916;28;20036;-77
2022/04/05 02:24:57;;;;;;;21.45;10.60;;;9.50;99.90;;;;;;5074509;28;20016;-77
2022/04/05 02:27:22;;;;;;;19.52;9.55;;;9.50;99.90;;;;;;5073856;28;20468;-77
2022/04/05 02:29:48;;;;;;;20.45;10.75;;;9.50;99.90;;;;;;5073554;28;20468;-77
2022/04/05 02:32:13;;;;;;;17.73;10.98;;;9.50;99.90;;;;;;5073783;28;20545;-78
2022/04/05 02:34:39;;;;;;;15.13;9.82;;;9.50;99.90;;;;;;5073960;28;20352;-77
2022/04/05 02:37:05;;;;;;;13.50;9.85;;;9.50;99.90;;;;;;5073630;28;20017;-78
2022/04/05 02:39:30;;;;;;;16.73;11.50;;;9.40;99.90;;;;;;5073638;28;20082;-77
2022/04/05 02:41:56;;;;;;;15.55;9.88;;;9.40;99.90;;;;;;5073775;28;20028;-77
2022/04/05 02:44:22;;;;;;;15.57;9.80;;;9.40;99.90;;;;;;5073165;28;20393;-77
2022/04/05 02:46:47;;;;;;;14.25;10.50;;;9.40;99.90;;;;;;5074117;28;20464;-77
2022/04/05 02:49:13;;;;;;;14.43;9.43;;;9.40;99.90;;;;;;5073920;28;20021;-76
2022/04/05 02:51:39;;;;;;;15.52;9.68;;;9.50;99.90;;;;;;5073344;28;20032;-77
2022/04/05 02:54:05;;;;;;;19.50;11.48;;;9.50;99.90;;;;;;5073579;28;20484;-76
2022/04/05 02:56:30;;;;;;;14.55;10.00;;;9.50;99.90;;;;;;5073507;28;20040;-77
2022/04/05 02:58:56;;;;;;;18.30;10.43;;;9.60;99.90;;;;;;5072978;28;20025;-76
2022/04/05 03:01:21;;;;;;;14.57;10.93;;;9.60;99.90;;;;;;5073362;28;20037;-77
2022/04/05 03:03:47;;;;;;;17.58;11.60;;;9.50;99.90;;;;;;5074180;28;20026;-77
2022/04/05 03:06:14;;;;;;;14.60;10.35;;;9.50;99.90;;;;;;5072768;28;20043;-77
2022/04/05 03:08:40;;;;;;;14.13;10.57;;;9.60;99.90;;;;;;5072920;28;20079;-77
2022/04/05 03:17:50;;;;;;;12.38;9.88;;;9.60;99.90;;;;;;5073449;28;20035;-76
2022/04/05 03:20:16;;;;;;;11.85;9.73;;;9.60;99.90;;;;;;5072978;28;20024;-75
2022/04/05 03:22:42;;;;;;;12.63;11.23;;;9.60;99.90;;;;;;5072966;28;20115;-76
2022/04/05 03:25:10;;;;;;;11.27;9.88;;;9.60;99.90;;;;;;5072990;28;20029;-76
2022/04/05 03:27:42;;;;;;;11.70;10.25;;;9.70;99.90;;;;;;5072722;28;20028;-75
2022/04/05 03:30:14;;;;;;;12.65;9.50;;;9.60;99.90;;;;;;5072628;28;20526;-75
2022/04/05 03:32:40;;;;;;;11.80;10.23;;;9.70;99.90;;;;;;5072098;28;20020;-75
2022/04/05 03:35:06;;;;;;;14.50;9.73;;;9.60;99.90;;;;;;5072799;28;20021;-76
2022/04/05 03:37:32;;;;;;;12.95;10.45;;;9.60;99.90;;;;;;5072593;28;20082;-76
2022/04/05 03:39:59;;;;;;;14.50;11.02;;;9.60;99.90;;;;;;5072538;28;20025;-75
2022/04/05 03:42:25;;;;;;;12.75;11.48;;;9.60;99.90;;;;;;5072674;28;20108;-75
2022/04/05 03:44:51;;;;;;;14.75;11.63;;;9.60;99.90;;;;;;5072661;28;20655;-75
2022/04/05 03:47:16;;;;;;;13.82;12.32;;;9.60;99.90;;;;;;5071812;28;20051;-75
2022/04/05 03:49:42;;;;;;;14.00;11.68;;;9.60;99.90;;;;;;5072482;28;20025;-76
2022/04/05 03:52:08;;;;;;;19.75;11.38;;;9.60;99.90;;;;;;5072379;28;20108;-76
2022/04/05 03:54:33;;;;;;;18.48;12.23;;;9.70;99.90;;;;;;5072162;28;20056;-75
2022/04/05 03:56:59;;;;;;;15.35;12.20;;;9.60;99.90;;;;;;5072811;28;20033;-75
2022/04/05 03:59:24;;;;;;;12.32;10.20;;;9.70;99.90;;;;;;5072041;28;20032;-76
2022/04/05 04:01:51;;;;;;;14.85;11.82;;;9.70;99.90;;;;;;5071943;28;20023;-75
2022/04/05 04:04:16;;;;;;;18.20;11.85;;;9.70;99.90;;;;;;5071921;28;20078;-75
2022/04/05 04:06:42;;;;;;;16.42;11.18;;;9.80;99.90;;;;;;5072559;28;20020;-76
2022/04/05 04:09:07;;;;;;;14.05;10.27;;;9.80;99.90;;;;;;5071590;28;20053;-76
2022/04/05 04:11:33;;;;;;;14.98;11.43;;;9.80;99.90;;;;;;5072440;28;20043;-75
2022/04/05 04:13:58;;;;;;;18.83;11.25;;;9.70;99.90;;;;;;5072193;28;20480;-75
2022/04/05 04:16:25;;;;;;;18.75;10.27;;;9.70;99.90;;;;;;5071500;28;20373;-75
2022/04/05 04:18:51;;;;;;;18.42;10.50;;;9.70;99.90;;;;;;5072114;28;20070;-75
2022/04/05 04:21:16;;;;;;;15.60;11.80;;;9.80;99.90;;;;;;5072182;28;20020;-75
2022/04/05 04:23:42;;;;;;;23.55;12.55;;;9.70;99.90;;;;;;5071742;28;20077;-75
2022/04/05 04:26:07;;;;;;;17.52;11.98;;;9.70;99.90;;;;;;5071908;28;20032;-75
2022/04/05 04:28:33;;;;;;;24.58;12.75;;;9.70;99.90;;;;;;5072010;28;20017;-75
2022/04/05 04:30:58;;;;;;;19.40;12.18;;;9.70;99.90;;;;;;5071849;28;20048;-75
2022/04/05 04:33:24;;;;;;;22.73;12.15;;;9.70;99.90;;;;;;5071663;28;20020;-75
2022/04/05 04:35:53;;;;;;;21.75;12.45;;;9.70;99.90;;;;;;5071629;28;20032;-75
2022/04/05 04:38:19;;;;;;;19.38;11.40;;;9.70;99.90;;;;;;5071993;28;20025;-76
2022/04/05 04:40:46;;;;;;;22.58;12.07;;;9.70;99.90;;;;;;5071843;28;20032;-76
2022/04/05 04:43:14;;;;;;;21.50;11.15;;;9.70;99.90;;;;;;5070277;28;20109;-76
2022/04/05 04:45:39;;;;;;;22.92;10.27;;;9.70;99.90;;;;;;5071912;28;20487;-77
2022/04/05 04:48:05;;;;;;;29.40;12.60;;;9.70;99.90;;;;;;5071776;28;20037;-77
2022/04/05 04:50:31;;;;;;;20.27;10.90;;;9.80;99.90;;;;;;5071225;28;20399;-76
2022/04/05 04:52:56;;;;;;;26.80;11.23;;;9.80;99.90;;;;;;5072148;28;20017;-77
2022/04/05 04:55:24;;;;;;;20.65;8.98;;;9.80;99.90;;;;;;5071493;28;20032;-77
2022/04/05 04:57:50;;;;;;;21.05;10.48;;;9.80;99.90;;;;;;5071281;28;20051;-77
2022/04/05 05:00:17;;;;;;;19.08;10.68;;;9.80;99.90;;;;;;5071446;28;20114;-77
2022/04/05 05:02:48;;;;;;;21.90;11.00;;;9.80;99.90;;;;;;5071279;28;20034;-77
2022/04/05 05:05:21;;;;;;;26.58;11.20;;;9.80;99.90;;;;;;5071179;28;20024;-77
2022/04/05 05:07:49;;;;;;;24.83;11.05;;;9.70;99.90;;;;;;5072309;28;20099;-76
2022/04/05 05:10:18;;;;;;;23.08;10.05;;;9.70;99.90;;;;;;5070939;28;20158;-76
2022/04/05 05:12:44;;;;;;;13.48;9.30;;;9.80;99.90;;;;;;5071645;28;20047;-76
2022/04/05 05:15:15;;;;;;;20.80;9.68;;;9.80;99.90;;;;;;5071988;28;20468;-76
2022/04/05 05:17:41;;;;;;;;;;;9.80;99.90;;;;;;5075805;28;20112;-76
2022/04/05 05:20:07;;;;;;;17.58;10.00;;;9.80;99.90;;;;;;5075053;28;19951;-76
2022/04/05 05:22:33;;;;;;;13.32;7.93;;;9.80;99.90;;;;;;5075842;28;20036;-75
2022/04/05 05:24:58;;;;;;;15.60;8.30;;;9.80;99.90;;;;;;5074921;28;20020;-76
2022/04/05 05:27:24;;;;;;;18.95;9.25;;;9.90;99.90;;;;;;5075223;28;20035;-75
2022/04/05 05:29:49;;;;;;;10.65;7.50;;;9.90;99.90;;;;;;5075037;28;20039;-76
2022/04/05 05:32:15;;;;;;;14.10;8.30;;;9.90;99.90;;;;;;5074877;28;20029;-76
2022/04/05 05:34:41;;;;;;;14.90;8.40;;;9.90;99.90;;;;;;5075792;28;20059;-75
2022/04/05 05:37:06;;;;;;;18.05;7.57;;;10.00;99.90;;;;;;5075170;28;20021;-75
2022/04/05 05:39:32;;;;;;;19.08;8.07;;;10.00;99.90;;;;;;5076790;28;20033;-74
2022/04/05 05:41:58;;;;;;;15.30;8.00;;;10.00;99.90;;;;;;5074927;28;20050;-75
2022/04/05 05:44:24;;;;;;;13.52;7.13;;;10.00;99.90;;;;;;5074365;28;20021;-76
2022/04/05 05:46:50;;;;;;;15.38;7.95;;;10.10;99.90;;;;;;5074536;28;20029;-74
2022/04/05 05:49:16;;;;;;;20.50;7.45;;;10.10;99.90;;;;;;5074501;28;20020;-74
2022/04/05 05:51:42;;;;;;;11.15;7.00;;;10.20;99.90;;;;;;5074578;28;20040;-75
2022/04/05 05:54:07;;;;;;;12.10;7.90;;;10.20;99.90;;;;;;5074064;28;20036;-74
2022/04/05 05:56:33;;;;;;;11.95;6.70;;;10.20;99.90;;;;;;5074909;28;20044;-74
2022/04/05 05:58:59;;;;;;;14.27;6.63;;;10.20;99.90;;;;;;5074347;28;20032;-77
2022/04/05 06:01:25;;;;;;;11.30;6.43;;;10.20;99.90;;;;;;5073700;28;20492;-77
2022/04/05 06:03:51;;;;;;;13.23;6.18;;;10.20;99.90;;;;;;5074552;28;20107;-76
2022/04/05 06:06:17;;;;;;;10.50;7.18;;;10.20;99.90;;;;;;5074051;28;20048;-76
2022/04/05 06:08:42;;;;;;;10.57;4.80;;;10.20;99.90;;;;;;5073766;28;20055;-77
2022/04/05 06:11:08;;;;;;;6.65;6.05;;;10.30;99.90;;;;;;5074161;28;20099;-77
2022/04/05 06:13:34;;;;;;;12.30;6.43;;;10.30;99.90;;;;;;5074129;28;20017;-76
2022/04/05 06:16:00;;;;;;;7.57;5.07;;;10.30;99.90;;;;;;5074038;28;20032;-76
2022/04/05 06:18:25;;;;;;;11.07;6.20;;;10.30;99.90;;;;;;5074110;28;20020;-77
2022/04/05 06:20:51;;;;;;;9.50;5.32;;;10.30;99.90;;;;;;5074193;28;20025;-76
2022/04/05 06:23:19;;;;;;;11.95;6.60;;;10.30;99.90;;;;;;5073383;28;20021;-74
2022/04/05 06:25:45;;;;;;;11.18;5.47;;;10.30;99.90;;;;;;5085635;28;20520;-77
2022/04/05 06:28:11;;;;;;;11.23;5.13;;;10.40;99.90;;;;;;5072139;28;20146;-76
2022/04/05 06:30:37;;;;;;;10.50;6.13;;;10.40;99.90;;;;;;5073037;28;20051;-75
2022/04/05 06:33:06;;;;;;;15.10;5.32;;;10.40;99.90;;;;;;5072163;28;20024;-75
2022/04/05 06:35:31;;;;;;;10.98;6.03;;;10.40;99.90;;;;;;5071795;28;20028;-76
2022/04/05 06:37:57;;;;;;;12.93;5.38;;;10.40;99.90;;;;;;5072218;28;20039;-75
2022/04/05 06:40:22;;;;;;;11.43;5.78;;;10.40;99.90;;;;;;5071415;28;20072;-74
2022/04/05 06:42:48;;;;;;;11.90;4.60;;;10.50;99.90;;;;;;5071837;28;20048;-74
2022/04/05 06:45:22;;;;;;;14.90;7.07;;;10.50;99.90;;;;;;5070717;28;20021;-74
2022/04/05 06:47:48;;;;;;;10.38;5.30;;;10.50;99.90;;;;;;5070285;28;20021;-74
2022/04/05 06:50:16;;;;;;;8.85;3.97;;;10.50;99.90;;;;;;5071574;28;20029;-74
2022/04/05 06:52:42;;;;;;;11.50;5.90;;;10.60;99.90;;;;;;5074059;28;20021;-73
2022/04/05 06:55:10;;;;;;;12.57;4.35;;;10.60;99.90;;;;;;5069783;28;20427;-73
2022/04/05 06:57:36;;;;;;;8.30;5.32;;;10.60;99.90;;;;;;5072171;28;20021;-73
2022/04/05 07:00:06;;;;;;;15.18;5.18;;;10.50;99.90;;;;;;5072389;28;20028;-74
2022/04/05 07:02:32;;;;;;;9.38;4.75;;;10.50;99.90;;;;;;5072202;28;20024;-73
2022/04/05 07:04:57;;;;;;;10.38;5.10;;;10.60;99.90;;;;;;5072314;28;20024;-73
2022/04/05 07:07:23;;;;;;;8.32;4.88;;;10.60;99.90;;;;;;5072254;28;20020;-73
2022/04/05 07:09:48;;;;;;;10.68;4.60;;;10.60;99.90;;;;;;5071920;28;20112;-74
2022/04/05 07:12:14;;;;;;;6.22;3.38;;;10.60;99.90;;;;;;5071326;28;20016;-75
2022/04/05 07:14:39;;;;;;;12.40;5.15;;;10.60;99.90;;;;;;5072206;28;20028;-72
2022/04/05 07:17:05;;;;;;;14.35;5.80;;;10.70;99.90;;;;;;5071972;28;20036;-73
2022/04/05 07:19:31;;;;;;;8.40;4.97;;;10.80;99.90;;;;;;5071313;28;20040;-73
2022/04/05 07:21:56;;;;;;;7.63;4.32;;;10.80;99.90;;;;;;5080373;28;20028;-73
2022/04/05 07:24:22;;;;;;;11.35;4.47;;;10.90;99.90;;;;;;5093105;28;20059;-74
2022/04/05 07:26:48;;;;;;;10.18;4.70;;;10.90;99.90;;;;;;5073023;28;20043;-73
2022/04/05 07:29:13;;;;;;;9.55;4.95;;;11.00;99.90;;;;;;5071413;28;20063;-73
2022/04/05 07:31:39;;;;;;;4.28;3.38;;;11.00;99.90;;;;;;5071119;28;20105;-73
2022/04/05 07:34:05;;;;;;;9.50;4.22;;;11.00;99.90;;;;;;5072071;28;20062;-72
2022/04/05 07:36:31;;;;;;;6.57;3.58;;;11.00;99.90;;;;;;5071301;28;20472;-74
2022/04/05 07:38:56;;;;;;;16.67;4.43;;;11.00;99.90;;;;;;5073529;28;20016;-73
2022/04/05 07:41:22;;;;;;;5.50;3.15;;;11.10;99.90;;;;;;5071535;28;20380;-73
2022/04/05 07:43:47;;;;;;;5.07;3.58;;;11.10;99.90;;;;;;5070903;28;20421;-72
2022/04/05 07:46:13;;;;;;;13.52;3.65;;;11.20;99.90;;;;;;5071722;28;20048;-73
2022/04/05 07:48:39;;;;;;;9.10;3.50;;;11.20;99.90;;;;;;5072354;28;20491;-76
2022/04/05 07:51:06;;;;;;;7.40;3.85;;;11.30;99.90;;;;;;5072185;28;20043;-74
2022/04/05 07:53:32;;;;;;;12.68;3.67;;;11.30;99.90;;;;;;5071720;28;20048;-74
2022/04/05 07:55:57;;;;;;;7.63;3.97;;;11.30;99.90;;;;;;5072818;28;20396;-74
2022/04/05 07:58:24;;;;;;;3.78;3.28;;;11.20;99.90;;;;;;5072283;28;20025;-79
2022/04/05 08:00:50;;;;;;;7.25;3.90;;;11.30;99.90;;;;;;5072188;28;20028;-73
2022/04/05 08:03:17;;;;;;;8.55;3.50;;;11.20;99.90;;;;;;5072118;28;20020;-73
2022/04/05 08:05:43;;;;;;;8.15;4.22;;;11.20;99.90;;;;;;5072663;28;20028;-74
2022/04/05 08:08:09;;;;;;;5.70;3.72;;;11.30;99.90;;;;;;5072489;28;20486;-74
2022/04/05 08:10:35;;;;;;;9.75;4.32;;;11.20;99.90;;;;;;5106191;28;20122;-77
2022/04/05 08:13:01;;;;;;;13.38;5.32;;;11.30;99.90;;;;;;5110876;28;20543;-75
2022/04/05 08:15:27;;;;;;;4.78;4.28;;;11.10;99.90;;;;;;5110027;28;20483;-78
2022/04/05 08:17:52;;;;;;;10.55;5.10;;;11.10;99.90;;;;;;5110720;28;20023;-74
2022/04/05 08:20:19;;;;;;;4.85;3.88;;;11.10;99.90;;;;;;5088419;28;20051;-74
2022/04/05 08:22:46;;;;;;;12.25;4.97;;;11.10;99.90;;;;;;5081270;28;20464;-72
2022/04/05 08:25:15;;;;;;;8.40;4.45;;;11.00;99.90;;;;;;5089931;28;20394;-75
2022/04/05 08:27:42;;;;;;;11.05;5.22;;;10.90;99.90;;;;;;5083873;28;20020;-75
2022/04/05 08:30:10;;;;;;;9.68;5.50;;;10.90;99.90;;;;;;5097068;28;20426;-74
2022/04/05 08:32:42;;;;;;;7.97;5.32;;;10.90;99.90;;;;;;5085746;28;20475;-76
2022/04/05 08:35:09;;;;;;;8.43;5.53;;;10.80;99.90;;;;;;5087912;28;20116;-74
2022/04/05 08:37:35;;;;;;;7.97;5.43;;;10.90;99.90;;;;;;5086171;28;20025;-74
2022/04/05 08:40:06;;;;;;;12.07;5.63;;;10.90;99.90;;;;;;5094158;28;20046;-75
2022/04/05 08:42:38;;;;;;;10.68;5.80;;;10.90;99.90;;;;;;5088620;28;20504;-74
2022/04/05 08:45:08;;;;;;;12.65;5.30;;;10.90;99.90;;;;;;5085990;28;20534;-74
2022/04/05 08:47:46;;;;;;;9.25;5.03;;;11.00;99.90;;;;;;5088345;28;20044;-75
2022/04/05 08:50:16;;;;;;;10.93;5.03;;;11.00;99.90;;;;;;5087832;28;20134;-76
2022/04/05 08:52:43;;;;;;;10.25;5.75;;;11.00;99.90;;;;;;5081381;28;20024;-77
2022/04/05 08:55:08;;;;;;;10.52;4.97;;;11.00;99.90;;;;;;5083069;28;20541;-77
2022/04/05 08:57:34;;;;;;;7.93;5.25;;;10.90;99.90;;;;;;5087548;28;20143;-76
2022/04/05 09:00:03;;;;;;;7.63;4.97;;;11.00;99.90;;;;;;5084238;28;20096;-75
2022/04/05 09:02:28;;;;;;;10.63;6.53;;;10.90;99.90;;;;;;5085193;28;20028;-76
2022/04/05 09:04:54;;;;;;;9.45;5.53;;;10.90;99.90;;;;;;5089346;28;20024;-74
2022/04/05 09:07:40;;;;;;;8.95;5.97;;;10.90;99.90;;;;;;5090552;28;20019;-75
2022/04/05 09:10:08;;;;;;;10.88;4.88;;;10.90;99.90;;;;;;5109705;28;20054;-75
2022/04/05 09:12:41;;;;;;;10.77;5.45;;;10.90;99.90;;;;;;5111242;28;20026;-72
2022/04/05 09:15:22;;;;;;;14.52;6.65;;;10.90;99.90;;;;;;5093584;28;20036;-73
2022/04/05 09:17:49;;;;;;;8.60;4.95;;;10.90;99.90;;;;;;5102835;28;20391;-73
2022/04/05 09:20:17;;;;;;;9.93;5.65;;;11.10;99.90;;;;;;5074673;28;20575;-73
2022/04/05 09:22:43;;;;;;;10.23;5.38;;;11.00;99.90;;;;;;5106612;28;20032;-73
2022/04/05 09:25:14;;;;;;;11.75;5.05;;;11.10;99.90;;;;;;5103444;28;20019;-73
2022/04/05 09:27:49;;;;;;;10.52;5.22;;;11.10;99.90;;;;;;5110335;28;20038;-73
2022/04/05 09:30:21;;;;;;;11.65;5.07;;;11.20;99.90;;;;;;5101711;28;20386;-73
2022/04/05 09:32:48;;;;;;;7.13;4.65;;;11.20;99.90;;;;;;5103395;28;20033;-73
2022/04/05 09:35:19;;;;;;;4.72;3.78;;;11.20;99.90;;;;;;5109761;28;20097;-74
2022/04/05 09:37:48;;;;;;;4.70;4.15;;;11.30;99.90;;;;;;5110692;28;20024;-74
2022/04/05 09:40:35;;;;;;;11.07;4.88;;;11.30;99.90;;;;;;5105039;28;20028;-73
2022/04/05 09:43:07;;;;;;;8.48;4.35;;;11.30;99.90;;;;;;5104128;28;20491;-73
2022/04/05 09:45:53;;;;;;;9.68;4.40;;;11.30;99.90;;;;;;5110042;28;20096;-73
2022/04/05 09:48:22;;;;;;;5.38;4.22;;;11.20;99.90;;;;;;5109747;28;20099;-73
2022/04/05 09:51:10;;;;;;;9.10;4.72;;;11.20;99.90;;;;;;5105418;28;20134;-73
2022/04/05 09:53:38;;;;;;;7.47;4.10;;;11.30;99.90;;;;;;5109996;28;20054;-74
2022/04/05 09:56:22;;;;;;;7.00;4.07;;;11.30;99.90;;;;;;5110467;28;20399;-73
2022/04/05 09:58:55;;;;;;;7.90;4.28;;;11.40;99.90;;;;;;5105848;28;20030;-74
2022/04/05 10:01:25;;;;;;;7.38;4.28;;;11.40;99.90;;;;;;5107509;28;20027;-74
2022/04/05 10:04:00;;;;;;;10.93;4.63;;;11.40;99.90;;;;;;5084773;28;20051;-74
2022/04/05 10:06:28;;;;;;;8.20;5.07;;;11.40;99.90;;;;;;5092321;28;20020;-75
2022/04/05 10:08:55;;;;;;;9.80;5.05;;;11.40;99.90;;;;;;5085141;28;20132;-75
2022/04/05 10:11:24;;;;;;;10.77;5.00;;;11.40;99.90;;;;;;5091405;28;20407;-74
2022/04/05 10:13:50;;;;;;;7.07;4.15;;;11.40;99.90;;;;;;5095281;28;20031;-74
2022/04/05 10:16:18;;;;;;;5.07;3.55;;;11.50;99.90;;;;;;5113174;28;20036;-74
2022/04/05 10:18:46;;;;;;;6.55;3.75;;;11.50;99.90;;;;;;5112276;28;20555;-75
2022/04/05 10:21:13;;;;;;;10.20;4.45;;;11.50;99.90;;;;;;5112365;28;20054;-74
2022/04/05 10:23:43;;;;;;;11.65;5.60;;;11.50;99.90;;;;;;5112967;28;20035;-75
2022/04/05 10:26:15;;;;;;;5.60;4.22;;;11.50;99.90;;;;;;5113089;28;20062;-75
2022/04/05 10:28:44;;;;;;;10.27;4.63;;;11.60;99.90;;;;;;5112498;28;20031;-75
2022/04/05 10:31:36;;;;;;;9.45;4.00;;;11.60;99.90;;;;;;5112854;28;20048;-74
2022/04/05 10:34:21;;;;;;;14.27;5.00;;;11.60;99.90;;;;;;5112348;28;20086;-75
2022/04/05 10:37:17;;;;;;;12.68;5.15;;;11.70;99.90;;;;;;5113553;28;20020;-75
2022/04/05 10:40:04;;;;;;;9.18;5.40;;;11.90;99.90;;;;;;5085515;28;20484;-73
2022/04/05 10:42:44;;;;;;;11.52;5.22;;;12.20;99.90;;;;;;5064506;28;20381;-73
2022/04/05 10:45:13;;;;;;;15.77;4.65;;;12.50;99.90;;;;;;5073664;28;20385;-72
2022/04/05 10:48:21;;;;;;;9.40;5.00;;;12.50;99.90;;;;;;5072782;28;20107;-73
2022/04/05 10:51:02;;;;;;;7.22;4.85;;;12.40;99.90;;;;;;5068162;28;20052;-73
2022/04/05 10:54:17;;;;;;;;;;;12.40;99.90;;;;;;5073800;28;20091;-72
2022/04/05 10:56:28;;;;;;;9.25;5.20;;;12.50;99.90;;;;;;5072840;28;19911;-72
2022/04/05 10:58:54;;;;;;;8.18;5.68;;;12.50;99.90;;;;;;5073829;28;20581;-73
2022/04/05 11:01:20;;;;;;;6.55;5.95;;;12.50;99.90;;;;;;5073541;28;20108;-73
2022/04/05 11:04:14;;;;;;;8.63;6.40;;;12.50;99.90;;;;;;5072350;28;20028;-73
2022/04/05 11:06:58;;;;;;;7.97;7.25;;;12.50;99.90;;;;;;5073193;28;20040;-73
2022/04/05 11:09:45;;;;;;;10.25;8.73;;;12.50;99.90;;;;;;5073944;28;20416;-73
2022/04/05 11:12:16;;;;;;;9.25;8.40;;;12.40;99.90;;;;;;5073179;28;20036;-73
2022/04/05 11:14:51;;;;;;;9.90;8.20;;;12.40;99.90;;;;;;5072930;28;20086;-74
2022/04/05 11:17:19;;;;;;;9.55;8.60;;;12.30;99.90;;;;;;5072913;28;20033;-72
2022/04/05 11:19:47;;;;;;;12.95;9.57;;;12.30;99.90;;;;;;5073247;28;20041;-74
2022/04/05 11:22:22;;;;;;;12.13;9.98;;;12.20;99.90;;;;;;5073044;28;20048;-73
2022/04/05 11:25:08;;;;;;;11.88;9.52;;;12.20;99.90;;;;;;5072952;28;20044;-73
2022/04/05 11:27:49;;;;;;;11.15;9.98;;;12.10;99.90;;;;;;5073060;28;20029;-73
2022/04/05 11:30:20;;;;;;;;;;;12.30;99.90;;;;;;5073196;28;20031;-73
2022/04/05 11:33:19;;;;;;;11.07;9.75;;;12.40;99.90;;;;;;5072908;28;19904;-73
2022/04/05 11:35:46;;;;;;;11.50;10.25;;;12.50;99.90;;;;;;5072726;28;20500;-72
2022/04/05 11:38:28;;;;;;;18.85;10.80;;;12.80;99.90;;;;;;5072336;28;20421;-73
2022/04/05 11:41:00;;;;;;;9.93;9.02;;;13.00;99.90;;;;;;5076356;28;20032;-74
2022/04/05 11:43:34;;;;;;;11.27;8.88;;;13.10;99.90;;;;;;5072650;28;20032;-73
2022/04/05 11:46:04;;;;;;;10.43;9.43;;;13.20;99.90;;;;;;5072511;28;20048;-73
2022/04/05 11:48:31;;;;;;;11.75;8.48;;;13.10;99.90;;;;;;5072496;28;20036;-73
2022/04/05 11:51:01;;;;;;;14.48;9.68;;;13.10;99.90;;;;;;5072782;28;20037;-72
2022/04/05 11:53:31;;;;;;;11.10;8.75;;;13.00;99.90;;;;;;5072447;28;20093;-72
2022/04/05 11:56:21;;;;;;;11.47;8.27;;;12.90;99.90;;;;;;5072733;28;20045;-73
2022/04/05 11:58:52;;;;;;;8.48;7.72;;;12.90;99.90;;;;;;5072546;28;20041;-72
2022/04/05 12:01:25;;;;;;;9.48;8.02;;;12.80;99.90;;;;;;5072190;28;20106;-72
2022/04/05 12:04:16;;;;;;;9.65;7.45;;;12.70;99.90;;;;;;5072388;28;20052;-73
2022/04/05 12:06:44;;;;;;;8.80;7.88;;;12.70;99.90;;;;;;5066919;28;20028;-73
2022/04/05 12:09:15;;;;;;;11.80;8.38;;;12.70;99.90;;;;;;5071790;28;20127;-73
2022/04/05 12:11:43;;;;;;;9.75;9.00;;;12.70;99.90;;;;;;5072401;28;20495;-73
2022/04/05 12:14:17;;;;;;;10.63;9.57;;;12.70;99.90;;;;;;5071531;28;20357;-73
2022/04/05 12:16:52;;;;;;;11.35;8.57;;;12.70;99.90;;;;;;5072185;28;20055;-74
2022/04/05 12:19:23;;;;;;;9.13;8.32;;;12.60;99.90;;;;;;5071973;28;20028;-73
2022/04/05 12:21:57;;;;;;;9.02;8.07;;;12.50;99.90;;;;;;5071724;28;20128;-74
2022/04/05 12:24:25;;;;;;;14.55;8.52;;;12.40;99.90;;;;;;5071473;28;20040;-73
2022/04/05 12:26:51;;;;;;;10.52;8.23;;;12.40;99.90;;;;;;5071906;28;20016;-73
2022/04/05 12:29:17;;;;;;;17.88;10.63;;;12.30;99.90;;;;;;5072570;28;20375;-73
2022/04/05 12:31:42;;;;;;;8.73;7.63;;;12.40;99.90;;;;;;5071882;28;20124;-73
2022/04/05 12:34:11;;;;;;;14.32;8.43;;;12.30;99.90;;;;;;5071098;28;20021;-72
2022/04/05 12:36:44;;;;;;;10.15;7.15;;;12.30;99.90;;;;;;5072254;28;20045;-72
2022/04/05 12:39:20;;;;;;;14.63;8.10;;;12.40;99.90;;;;;;5071494;28;20078;-72
2022/04/05 12:41:48;;;;;;;10.32;7.88;;;12.50;99.90;;;;;;5071522;28;20032;-73
2022/04/05 12:44:22;;;;;;;10.43;9.30;;;12.40;99.90;;;;;;5071737;28;20024;-72
2022/04/05 12:46:52;;;;;;;11.20;6.63;;;12.40;99.90;;;;;;5071556;28;20032;-73
2022/04/05 12:49:23;;;;;;;8.73;6.72;;;12.40;99.90;;;;;;5071200;28;20085;-73
2022/04/05 12:51:50;;;;;;;9.13;8.00;;;12.40;99.90;;;;;;5071885;28;20048;-73
2022/04/05 12:54:28;;;;;;;14.82;10.52;;;12.40;99.90;;;;;;5071603;28;20082;-72
2022/04/05 12:57:12;;;;;;;7.70;7.00;;;12.40;99.90;;;;;;5071291;28;20032;-72